sensor_id;sensor_type;location;lat;lon;timestamp;P1;durP1;ratioP1;P2;durP2;ratioP2
22388;SDS011;11362;48.102;11.620;2023-09-18T00:01:29;2.93;;;2.73;;
22388;SDS011;11362;48.102;11.620;2023-09-18T00:03:54;3.33;;;2.70;;
22388;SDS011;11362;48.102;11.620;2023-09-18T00:06:19;2.83;;;2.50;;
22388;SDS011;11362;48.102;11.620;2023-09-18T00:08:44;3.03;;;2.50;;
22388;SDS011;11362;48.102;11.620;2023-09-18T00:11:10;3.10;;;2.80;;
22388;SDS011;11362;48.102;11.620;2023-09-18T00:13:35;2.43;;;2.33;;
22388;SDS011;11362;48.102;11.620;2023-09-18T00:16:00;3.13;;;2.60;;
22388;SDS011;11362;48.102;11.620;2023-09-18T00:18:26;3.07;;;2.87;;
22388;SDS011;11362;48.102;11.620;2023-09-18T00:20:51;3.00;;;2.60;;
22388;SDS011;11362;48.102;11.620;2023-09-18T00:23:17;2.60;;;2.50;;
22388;SDS011;11362;48.102;11.620;2023-09-18T00:25:42;4.93;;;2.73;;
22388;SDS011;11362;48.102;11.620;2023-09-18T00:28:07;3.60;;;2.87;;
22388;SDS011;11362;48.102;11.620;2023-09-18T00:30:33;2.33;;;2.23;;
22388;SDS011;11362;48.102;11.620;2023-09-18T00:32:58;2.87;;;2.67;;
22388;SDS011;11362;48.102;11.620;2023-09-18T00:35:23;2.57;;;2.47;;
22388;SDS011;11362;48.102;11.620;2023-09-18T00:37:49;2.67;;;2.50;;
22388;SDS011;11362;48.102;11.620;2023-09-18T00:40:14;2.23;;;2.13;;
22388;SDS011;11362;48.102;11.620;2023-09-18T00:42:40;2.27;;;2.13;;
22388;SDS011;11362;48.102;11.620;2023-09-18T00:45:05;2.63;;;2.43;;
22388;SDS011;11362;48.102;11.620;2023-09-18T00:47:31;2.67;;;2.43;;
22388;SDS011;11362;48.102;11.620;2023-09-18T00:49:57;2.53;;;2.33;;
22388;SDS011;11362;48.102;11.620;2023-09-18T00:52:22;2.10;;;2.00;;
22388;SDS011;11362;48.102;11.620;2023-09-18T00:54:49;3.17;;;2.87;;
22388;SDS011;11362;48.102;11.620;2023-09-18T00:57:15;2.80;;;2.60;;
22388;SDS011;11362;48.102;11.620;2023-09-18T00:59:40;2.43;;;2.33;;
22388;SDS011;11362;48.102;11.620;2023-09-18T01:02:06;2.80;;;2.60;;
22388;SDS011;11362;48.102;11.620;2023-09-18T01:04:33;2.80;;;2.60;;
22388;SDS011;11362;48.102;11.620;2023-09-18T01:06:59;2.63;;;2.47;;
22388;SDS011;11362;48.102;11.620;2023-09-18T01:09:27;4.17;;;2.20;;
22388;SDS011;11362;48.102;11.620;2023-09-18T01:12:01;3.17;;;2.80;;
22388;SDS011;11362;48.102;11.620;2023-09-18T01:14:50;2.43;;;2.20;;
22388;SDS011;11362;48.102;11.620;2023-09-18T01:17:22;2.47;;;2.37;;
22388;SDS011;11362;48.102;11.620;2023-09-18T01:19:47;3.13;;;2.40;;
22388;SDS011;11362;48.102;11.620;2023-09-18T01:22:13;2.80;;;2.20;;
22388;SDS011;11362;48.102;11.620;2023-09-18T01:24:40;2.63;;;2.50;;
22388;SDS011;11362;48.102;11.620;2023-09-18T01:27:08;2.93;;;2.73;;
22388;SDS011;11362;48.102;11.620;2023-09-18T01:29:35;2.10;;;2.00;;
22388;SDS011;11362;48.102;11.620;2023-09-18T01:32:00;2.40;;;2.20;;
22388;SDS011;11362;48.102;11.620;2023-09-18T01:34:26;2.57;;;2.30;;
22388;SDS011;11362;48.102;11.620;2023-09-18T01:36:56;2.23;;;2.13;;
22388;SDS011;11362;48.102;11.620;2023-09-18T01:39:22;2.53;;;2.30;;
22388;SDS011;11362;48.102;11.620;2023-09-18T01:41:50;2.10;;;2.00;;
22388;SDS011;11362;48.102;11.620;2023-09-18T01:44:15;2.23;;;2.13;;
22388;SDS011;11362;48.102;11.620;2023-09-18T01:46:40;4.63;;;2.43;;
22388;SDS011;11362;48.102;11.620;2023-09-18T01:49:07;2.10;;;2.00;;
22388;SDS011;11362;48.102;11.620;2023-09-18T01:51:33;2.13;;;2.00;;
22388;SDS011;11362;48.102;11.620;2023-09-18T01:53:58;2.23;;;2.13;;
22388;SDS011;11362;48.102;11.620;2023-09-18T01:56:23;3.07;;;2.47;;
22388;SDS011;11362;48.102;11.620;2023-09-18T01:58:49;2.30;;;2.20;;
22388;SDS011;11362;48.102;11.620;2023-09-18T02:01:14;2.20;;;2.10;;
22388;SDS011;11362;48.102;11.620;2023-09-18T02:03:40;2.40;;;2.20;;
22388;SDS011;11362;48.102;11.620;2023-09-18T02:06:05;2.53;;;2.33;;
22388;SDS011;11362;48.102;11.620;2023-09-18T02:08:30;2.60;;;2.40;;
22388;SDS011;11362;48.102;11.620;2023-09-18T02:10:55;2.00;;;1.90;;
22388;SDS011;11362;48.102;11.620;2023-09-18T02:13:21;2.10;;;2.00;;
22388;SDS011;11362;48.102;11.620;2023-09-18T02:15:46;2.30;;;1.93;;
22388;SDS011;11362;48.102;11.620;2023-09-18T02:18:12;2.00;;;1.90;;
22388;SDS011;11362;48.102;11.620;2023-09-18T02:20:40;2.67;;;2.30;;
22388;SDS011;11362;48.102;11.620;2023-09-18T02:23:06;2.60;;;2.50;;
22388;SDS011;11362;48.102;11.620;2023-09-18T02:25:31;1.87;;;1.77;;
22388;SDS011;11362;48.102;11.620;2023-09-18T02:27:56;2.10;;;1.90;;
22388;SDS011;11362;48.102;11.620;2023-09-18T02:30:22;2.27;;;2.10;;
22388;SDS011;11362;48.102;11.620;2023-09-18T02:32:47;2.10;;;2.00;;
22388;SDS011;11362;48.102;11.620;2023-09-18T02:35:12;1.83;;;1.73;;
22388;SDS011;11362;48.102;11.620;2023-09-18T02:37:38;2.30;;;2.20;;
22388;SDS011;11362;48.102;11.620;2023-09-18T02:40:03;4.27;;;2.33;;
22388;SDS011;11362;48.102;11.620;2023-09-18T02:42:29;2.17;;;2.00;;
22388;SDS011;11362;48.102;11.620;2023-09-18T02:44:54;4.53;;;1.90;;
22388;SDS011;11362;48.102;11.620;2023-09-18T02:47:19;1.90;;;1.80;;
22388;SDS011;11362;48.102;11.620;2023-09-18T02:49:44;2.10;;;2.00;;
22388;SDS011;11362;48.102;11.620;2023-09-18T02:52:10;2.00;;;1.90;;
22388;SDS011;11362;48.102;11.620;2023-09-18T02:54:35;1.70;;;1.70;;
22388;SDS011;11362;48.102;11.620;2023-09-18T02:57:00;2.40;;;2.10;;
22388;SDS011;11362;48.102;11.620;2023-09-18T02:59:25;2.43;;;2.23;;
22388;SDS011;11362;48.102;11.620;2023-09-18T03:01:51;4.43;;;2.40;;
22388;SDS011;11362;48.102;11.620;2023-09-18T03:04:16;2.27;;;2.17;;
22388;SDS011;11362;48.102;11.620;2023-09-18T03:06:41;2.30;;;2.20;;
22388;SDS011;11362;48.102;11.620;2023-09-18T03:09:07;2.33;;;2.13;;
22388;SDS011;11362;48.102;11.620;2023-09-18T03:11:32;2.77;;;2.10;;
22388;SDS011;11362;48.102;11.620;2023-09-18T03:13:57;2.00;;;1.90;;
22388;SDS011;11362;48.102;11.620;2023-09-18T03:16:22;3.83;;;2.10;;
22388;SDS011;11362;48.102;11.620;2023-09-18T03:18:48;2.40;;;1.70;;
22388;SDS011;11362;48.102;11.620;2023-09-18T03:21:13;2.40;;;1.90;;
22388;SDS011;11362;48.102;11.620;2023-09-18T03:23:38;3.23;;;1.97;;
22388;SDS011;11362;48.102;11.620;2023-09-18T03:26:03;2.20;;;2.00;;
22388;SDS011;11362;48.102;11.620;2023-09-18T03:28:29;3.23;;;1.90;;
22388;SDS011;11362;48.102;11.620;2023-09-18T03:30:54;2.10;;;2.00;;
22388;SDS011;11362;48.102;11.620;2023-09-18T03:33:20;2.30;;;2.20;;
22388;SDS011;11362;48.102;11.620;2023-09-18T03:35:46;1.70;;;1.60;;
22388;SDS011;11362;48.102;11.620;2023-09-18T03:38:12;1.90;;;1.80;;
22388;SDS011;11362;48.102;11.620;2023-09-18T03:40:38;2.03;;;1.93;;
22388;SDS011;11362;48.102;11.620;2023-09-18T03:43:03;2.20;;;2.00;;
22388;SDS011;11362;48.102;11.620;2023-09-18T03:45:28;2.27;;;2.17;;
22388;SDS011;11362;48.102;11.620;2023-09-18T03:47:53;1.90;;;1.80;;
22388;SDS011;11362;48.102;11.620;2023-09-18T03:50:19;1.80;;;1.67;;
22388;SDS011;11362;48.102;11.620;2023-09-18T03:52:44;2.20;;;1.80;;
22388;SDS011;11362;48.102;11.620;2023-09-18T03:55:09;2.07;;;1.90;;
22388;SDS011;11362;48.102;11.620;2023-09-18T03:57:35;1.80;;;1.63;;
22388;SDS011;11362;48.102;11.620;2023-09-18T04:00:00;1.83;;;1.73;;
22388;SDS011;11362;48.102;11.620;2023-09-18T04:02:26;2.17;;;1.97;;
22388;SDS011;11362;48.102;11.620;2023-09-18T04:04:51;4.10;;;2.20;;
22388;SDS011;11362;48.102;11.620;2023-09-18T04:07:18;2.07;;;1.97;;
22388;SDS011;11362;48.102;11.620;2023-09-18T04:09:43;2.73;;;2.30;;
22388;SDS011;11362;48.102;11.620;2023-09-18T04:12:08;2.17;;;1.93;;
22388;SDS011;11362;48.102;11.620;2023-09-18T04:14:34;2.30;;;1.90;;
22388;SDS011;11362;48.102;11.620;2023-09-18T04:16:59;2.20;;;2.00;;
22388;SDS011;11362;48.102;11.620;2023-09-18T04:19:24;4.33;;;1.90;;
22388;SDS011;11362;48.102;11.620;2023-09-18T04:21:50;2.10;;;2.00;;
22388;SDS011;11362;48.102;11.620;2023-09-18T04:24:15;2.07;;;1.90;;
22388;SDS011;11362;48.102;11.620;2023-09-18T04:26:40;2.00;;;1.90;;
22388;SDS011;11362;48.102;11.620;2023-09-18T04:29:06;3.00;;;1.70;;
22388;SDS011;11362;48.102;11.620;2023-09-18T04:31:31;3.33;;;2.10;;
22388;SDS011;11362;48.102;11.620;2023-09-18T04:33:57;2.30;;;2.10;;
22388;SDS011;11362;48.102;11.620;2023-09-18T04:36:22;2.30;;;2.13;;
22388;SDS011;11362;48.102;11.620;2023-09-18T04:38:47;3.50;;;1.90;;
22388;SDS011;11362;48.102;11.620;2023-09-18T04:41:13;3.07;;;1.60;;
22388;SDS011;11362;48.102;11.620;2023-09-18T04:43:39;2.97;;;1.90;;
22388;SDS011;11362;48.102;11.620;2023-09-18T04:46:04;2.83;;;1.90;;
22388;SDS011;11362;48.102;11.620;2023-09-18T04:48:30;2.77;;;2.10;;
22388;SDS011;11362;48.102;11.620;2023-09-18T04:50:59;2.27;;;1.70;;
22388;SDS011;11362;48.102;11.620;2023-09-18T04:53:25;1.93;;;1.83;;
22388;SDS011;11362;48.102;11.620;2023-09-18T04:55:52;3.40;;;2.27;;
22388;SDS011;11362;48.102;11.620;2023-09-18T04:58:17;3.07;;;2.17;;
22388;SDS011;11362;48.102;11.620;2023-09-18T05:00:43;4.40;;;2.40;;
22388;SDS011;11362;48.102;11.620;2023-09-18T05:03:08;3.97;;;2.20;;
22388;SDS011;11362;48.102;11.620;2023-09-18T05:05:34;2.97;;;2.33;;
22388;SDS011;11362;48.102;11.620;2023-09-18T05:08:01;3.80;;;2.20;;
22388;SDS011;11362;48.102;11.620;2023-09-18T05:10:31;5.40;;;2.07;;
22388;SDS011;11362;48.102;11.620;2023-09-18T05:12:56;12.37;;;3.10;;
22388;SDS011;11362;48.102;11.620;2023-09-18T05:15:21;10.20;;;2.50;;
22388;SDS011;11362;48.102;11.620;2023-09-18T05:17:47;6.63;;;2.47;;
22388;SDS011;11362;48.102;11.620;2023-09-18T05:20:13;6.50;;;2.53;;
22388;SDS011;11362;48.102;11.620;2023-09-18T05:22:42;5.00;;;3.10;;
22388;SDS011;11362;48.102;11.620;2023-09-18T05:25:10;11.77;;;2.60;;
22388;SDS011;11362;48.102;11.620;2023-09-18T05:27:37;9.57;;;2.93;;
22388;SDS011;11362;48.102;11.620;2023-09-18T05:30:02;7.43;;;2.50;;
22388;SDS011;11362;48.102;11.620;2023-09-18T05:32:28;5.27;;;2.50;;
22388;SDS011;11362;48.102;11.620;2023-09-18T05:34:53;6.90;;;3.00;;
22388;SDS011;11362;48.102;11.620;2023-09-18T05:37:18;16.67;;;4.50;;
22388;SDS011;11362;48.102;11.620;2023-09-18T05:39:44;7.47;;;2.90;;
22388;SDS011;11362;48.102;11.620;2023-09-18T05:42:09;9.53;;;2.53;;
22388;SDS011;11362;48.102;11.620;2023-09-18T05:44:34;4.30;;;2.60;;
22388;SDS011;11362;48.102;11.620;2023-09-18T05:47:00;10.80;;;2.60;;
22388;SDS011;11362;48.102;11.620;2023-09-18T05:49:25;6.53;;;2.80;;
22388;SDS011;11362;48.102;11.620;2023-09-18T05:51:50;3.97;;;2.73;;
22388;SDS011;11362;48.102;11.620;2023-09-18T05:54:15;5.43;;;2.40;;
22388;SDS011;11362;48.102;11.620;2023-09-18T05:56:41;8.73;;;2.50;;
22388;SDS011;11362;48.102;11.620;2023-09-18T05:59:06;4.47;;;2.47;;
22388;SDS011;11362;48.102;11.620;2023-09-18T06:01:31;8.27;;;2.93;;
22388;SDS011;11362;48.102;11.620;2023-09-18T06:03:57;6.60;;;2.77;;
22388;SDS011;11362;48.102;11.620;2023-09-18T06:06:22;4.40;;;2.67;;
22388;SDS011;11362;48.102;11.620;2023-09-18T06:08:47;7.20;;;2.77;;
22388;SDS011;11362;48.102;11.620;2023-09-18T06:11:12;4.00;;;2.40;;
22388;SDS011;11362;48.102;11.620;2023-09-18T06:13:38;6.90;;;2.60;;
22388;SDS011;11362;48.102;11.620;2023-09-18T06:16:04;3.27;;;2.50;;
22388;SDS011;11362;48.102;11.620;2023-09-18T06:18:30;8.93;;;3.10;;
22388;SDS011;11362;48.102;11.620;2023-09-18T06:20:55;4.90;;;3.00;;
22388;SDS011;11362;48.102;11.620;2023-09-18T06:23:21;5.77;;;2.60;;
22388;SDS011;11362;48.102;11.620;2023-09-18T06:25:46;4.30;;;2.67;;
22388;SDS011;11362;48.102;11.620;2023-09-18T06:28:11;4.80;;;2.60;;
22388;SDS011;11362;48.102;11.620;2023-09-18T06:30:37;7.30;;;2.67;;
22388;SDS011;11362;48.102;11.620;2023-09-18T06:33:02;4.10;;;2.50;;
22388;SDS011;11362;48.102;11.620;2023-09-18T06:35:28;6.93;;;2.73;;
22388;SDS011;11362;48.102;11.620;2023-09-18T06:37:53;5.27;;;2.77;;
22388;SDS011;11362;48.102;11.620;2023-09-18T06:40:18;2.77;;;2.00;;
22388;SDS011;11362;48.102;11.620;2023-09-18T06:42:44;5.83;;;2.50;;
22388;SDS011;11362;48.102;11.620;2023-09-18T06:45:09;2.77;;;2.43;;
22388;SDS011;11362;48.102;11.620;2023-09-18T06:47:34;8.17;;;2.90;;
22388;SDS011;11362;48.102;11.620;2023-09-18T06:50:00;6.47;;;3.10;;
22388;SDS011;11362;48.102;11.620;2023-09-18T06:52:26;5.87;;;3.07;;
22388;SDS011;11362;48.102;11.620;2023-09-18T06:54:52;5.57;;;2.83;;
22388;SDS011;11362;48.102;11.620;2023-09-18T06:57:17;7.03;;;2.50;;
22388;SDS011;11362;48.102;11.620;2023-09-18T06:59:43;6.37;;;3.13;;
22388;SDS011;11362;48.102;11.620;2023-09-18T07:02:08;4.53;;;2.70;;
22388;SDS011;11362;48.102;11.620;2023-09-18T07:04:33;4.70;;;2.93;;
22388;SDS011;11362;48.102;11.620;2023-09-18T07:06:58;5.57;;;2.80;;
22388;SDS011;11362;48.102;11.620;2023-09-18T07:09:24;6.40;;;3.10;;
22388;SDS011;11362;48.102;11.620;2023-09-18T07:11:49;3.03;;;2.60;;
22388;SDS011;11362;48.102;11.620;2023-09-18T07:14:14;4.77;;;2.63;;
22388;SDS011;11362;48.102;11.620;2023-09-18T07:16:40;11.70;;;3.53;;
22388;SDS011;11362;48.102;11.620;2023-09-18T07:19:05;4.80;;;2.80;;
22388;SDS011;11362;48.102;11.620;2023-09-18T07:21:30;4.73;;;3.40;;
22388;SDS011;11362;48.102;11.620;2023-09-18T07:23:56;5.80;;;2.73;;
22388;SDS011;11362;48.102;11.620;2023-09-18T07:26:21;5.20;;;2.87;;
22388;SDS011;11362;48.102;11.620;2023-09-18T07:28:47;6.13;;;2.87;;
22388;SDS011;11362;48.102;11.620;2023-09-18T07:31:12;5.57;;;3.10;;
22388;SDS011;11362;48.102;11.620;2023-09-18T07:33:37;4.43;;;2.80;;
22388;SDS011;11362;48.102;11.620;2023-09-18T07:36:03;6.63;;;2.97;;
22388;SDS011;11362;48.102;11.620;2023-09-18T07:38:28;10.70;;;3.40;;
22388;SDS011;11362;48.102;11.620;2023-09-18T07:40:54;4.70;;;3.40;;
22388;SDS011;11362;48.102;11.620;2023-09-18T07:43:19;5.63;;;3.50;;
22388;SDS011;11362;48.102;11.620;2023-09-18T07:45:44;5.90;;;3.07;;
22388;SDS011;11362;48.102;11.620;2023-09-18T07:48:09;9.50;;;3.30;;
22388;SDS011;11362;48.102;11.620;2023-09-18T07:50:35;6.83;;;3.27;;
22388;SDS011;11362;48.102;11.620;2023-09-18T07:53:01;5.40;;;3.70;;
22388;SDS011;11362;48.102;11.620;2023-09-18T07:55:27;8.77;;;3.50;;
22388;SDS011;11362;48.102;11.620;2023-09-18T07:57:53;5.30;;;3.07;;
22388;SDS011;11362;48.102;11.620;2023-09-18T08:00:18;4.37;;;3.27;;
22388;SDS011;11362;48.102;11.620;2023-09-18T08:02:44;10.27;;;3.20;;
22388;SDS011;11362;48.102;11.620;2023-09-18T08:05:09;3.90;;;2.47;;
22388;SDS011;11362;48.102;11.620;2023-09-18T08:07:35;9.87;;;3.77;;
22388;SDS011;11362;48.102;11.620;2023-09-18T08:10:02;8.03;;;2.80;;
22388;SDS011;11362;48.102;11.620;2023-09-18T08:12:28;6.87;;;3.20;;
22388;SDS011;11362;48.102;11.620;2023-09-18T08:14:54;6.00;;;3.17;;
22388;SDS011;11362;48.102;11.620;2023-09-18T08:17:19;7.10;;;3.30;;
22388;SDS011;11362;48.102;11.620;2023-09-18T08:19:44;10.40;;;3.80;;
22388;SDS011;11362;48.102;11.620;2023-09-18T08:22:10;11.10;;;3.60;;
22388;SDS011;11362;48.102;11.620;2023-09-18T08:24:35;10.10;;;3.30;;
22388;SDS011;11362;48.102;11.620;2023-09-18T08:27:00;18.93;;;4.60;;
22388;SDS011;11362;48.102;11.620;2023-09-18T08:29:26;9.47;;;3.90;;
22388;SDS011;11362;48.102;11.620;2023-09-18T08:31:51;12.13;;;3.47;;
22388;SDS011;11362;48.102;11.620;2023-09-18T08:34:16;11.90;;;3.83;;
22388;SDS011;11362;48.102;11.620;2023-09-18T08:36:42;9.30;;;3.00;;
22388;SDS011;11362;48.102;11.620;2023-09-18T08:39:07;7.97;;;3.40;;
22388;SDS011;11362;48.102;11.620;2023-09-18T08:41:32;8.27;;;3.50;;
22388;SDS011;11362;48.102;11.620;2023-09-18T08:44:01;4.87;;;3.30;;
22388;SDS011;11362;48.102;11.620;2023-09-18T08:46:27;6.37;;;3.40;;
22388;SDS011;11362;48.102;11.620;2023-09-18T08:48:53;8.73;;;3.30;;
22388;SDS011;11362;48.102;11.620;2023-09-18T08:51:19;3.00;;;2.80;;
22388;SDS011;11362;48.102;11.620;2023-09-18T08:53:46;12.13;;;3.50;;
22388;SDS011;11362;48.102;11.620;2023-09-18T08:56:12;7.60;;;3.30;;
22388;SDS011;11362;48.102;11.620;2023-09-18T08:58:40;4.83;;;3.10;;
22388;SDS011;11362;48.102;11.620;2023-09-18T09:01:05;6.27;;;3.10;;
22388;SDS011;11362;48.102;11.620;2023-09-18T09:03:31;8.27;;;3.70;;
22388;SDS011;11362;48.102;11.620;2023-09-18T09:05:57;7.23;;;3.30;;
22388;SDS011;11362;48.102;11.620;2023-09-18T09:08:23;5.10;;;2.60;;
22388;SDS011;11362;48.102;11.620;2023-09-18T09:10:48;3.50;;;3.27;;
22388;SDS011;11362;48.102;11.620;2023-09-18T09:13:14;3.37;;;3.07;;
22388;SDS011;11362;48.102;11.620;2023-09-18T09:15:46;3.50;;;2.60;;
22388;SDS011;11362;48.102;11.620;2023-09-18T09:18:12;4.73;;;3.20;;
22388;SDS011;11362;48.102;11.620;2023-09-18T09:20:38;3.87;;;2.90;;
22388;SDS011;11362;48.102;11.620;2023-09-18T09:23:04;3.97;;;3.10;;
22388;SDS011;11362;48.102;11.620;2023-09-18T09:25:31;3.33;;;2.70;;
22388;SDS011;11362;48.102;11.620;2023-09-18T09:27:58;7.33;;;3.17;;
22388;SDS011;11362;48.102;11.620;2023-09-18T09:30:25;3.87;;;2.90;;
22388;SDS011;11362;48.102;11.620;2023-09-18T09:32:53;7.00;;;3.30;;
22388;SDS011;11362;48.102;11.620;2023-09-18T09:35:20;3.23;;;2.93;;
22388;SDS011;11362;48.102;11.620;2023-09-18T09:37:46;6.43;;;3.30;;
22388;SDS011;11362;48.102;11.620;2023-09-18T09:40:11;5.33;;;3.47;;
22388;SDS011;11362;48.102;11.620;2023-09-18T09:42:40;5.27;;;2.90;;
22388;SDS011;11362;48.102;11.620;2023-09-18T09:45:10;3.40;;;2.93;;
22388;SDS011;11362;48.102;11.620;2023-09-18T09:47:37;3.87;;;2.87;;
22388;SDS011;11362;48.102;11.620;2023-09-18T09:50:06;3.67;;;3.07;;
22388;SDS011;11362;48.102;11.620;2023-09-18T09:52:33;4.03;;;3.00;;
22388;SDS011;11362;48.102;11.620;2023-09-18T09:54:58;4.57;;;3.23;;
22388;SDS011;11362;48.102;11.620;2023-09-18T09:57:24;3.47;;;2.50;;
22388;SDS011;11362;48.102;11.620;2023-09-18T09:59:49;3.70;;;3.00;;
22388;SDS011;11362;48.102;11.620;2023-09-18T10:02:14;4.60;;;2.90;;
22388;SDS011;11362;48.102;11.620;2023-09-18T10:04:41;4.43;;;2.60;;
22388;SDS011;11362;48.102;11.620;2023-09-18T10:07:07;4.63;;;3.10;;
22388;SDS011;11362;48.102;11.620;2023-09-18T10:09:34;9.47;;;3.50;;
22388;SDS011;11362;48.102;11.620;2023-09-18T10:12:00;7.83;;;3.10;;
22388;SDS011;11362;48.102;11.620;2023-09-18T10:14:33;11.33;;;3.40;;
22388;SDS011;11362;48.102;11.620;2023-09-18T10:17:11;10.77;;;3.63;;
22388;SDS011;11362;48.102;11.620;2023-09-18T10:22:30;3.03;;;2.70;;
22388;SDS011;11362;48.102;11.620;2023-09-18T10:24:58;6.50;;;3.40;;
22388;SDS011;11362;48.102;11.620;2023-09-18T10:27:39;4.77;;;2.87;;
22388;SDS011;11362;48.102;11.620;2023-09-18T10:30:07;6.23;;;2.60;;
22388;SDS011;11362;48.102;11.620;2023-09-18T10:32:34;10.23;;;3.80;;
22388;SDS011;11362;48.102;11.620;2023-09-18T10:35:00;6.47;;;3.27;;
22388;SDS011;11362;48.102;11.620;2023-09-18T10:37:26;8.77;;;2.90;;
22388;SDS011;11362;48.102;11.620;2023-09-18T10:39:53;7.43;;;3.70;;
22388;SDS011;11362;48.102;11.620;2023-09-18T10:42:21;6.90;;;3.37;;
22388;SDS011;11362;48.102;11.620;2023-09-18T10:44:48;8.63;;;2.57;;
22388;SDS011;11362;48.102;11.620;2023-09-18T10:47:14;7.77;;;3.33;;
22388;SDS011;11362;48.102;11.620;2023-09-18T10:49:39;3.93;;;3.23;;
22388;SDS011;11362;48.102;11.620;2023-09-18T10:52:05;8.77;;;3.50;;
22388;SDS011;11362;48.102;11.620;2023-09-18T10:54:35;9.60;;;2.70;;
22388;SDS011;11362;48.102;11.620;2023-09-18T10:57:02;8.07;;;3.33;;
22388;SDS011;11362;48.102;11.620;2023-09-18T10:59:28;6.07;;;2.80;;
22388;SDS011;11362;48.102;11.620;2023-09-18T11:01:53;6.73;;;2.70;;
22388;SDS011;11362;48.102;11.620;2023-09-18T11:04:19;8.13;;;2.63;;
22388;SDS011;11362;48.102;11.620;2023-09-18T11:09:26;6.23;;;2.70;;
22388;SDS011;11362;48.102;11.620;2023-09-18T11:11:52;6.83;;;2.47;;
22388;SDS011;11362;48.102;11.620;2023-09-18T11:15:09;7.93;;;3.37;;
22388;SDS011;11362;48.102;11.620;2023-09-18T11:17:35;5.40;;;2.90;;
22388;SDS011;11362;48.102;11.620;2023-09-18T11:22:47;8.53;;;3.07;;
22388;SDS011;11362;48.102;11.620;2023-09-18T11:28:13;9.40;;;3.17;;
22388;SDS011;11362;48.102;11.620;2023-09-18T11:30:48;8.07;;;3.00;;
22388;SDS011;11362;48.102;11.620;2023-09-18T11:33:29;9.27;;;3.50;;
22388;SDS011;11362;48.102;11.620;2023-09-18T11:36:02;7.83;;;3.13;;
22388;SDS011;11362;48.102;11.620;2023-09-18T11:38:29;8.47;;;3.47;;
22388;SDS011;11362;48.102;11.620;2023-09-18T11:40:54;9.57;;;3.33;;
22388;SDS011;11362;48.102;11.620;2023-09-18T11:45:52;8.73;;;3.37;;
22388;SDS011;11362;48.102;11.620;2023-09-18T11:48:19;9.80;;;3.30;;
22388;SDS011;11362;48.102;11.620;2023-09-18T11:50:45;7.53;;;3.23;;
22388;SDS011;11362;48.102;11.620;2023-09-18T11:53:11;11.23;;;3.70;;
22388;SDS011;11362;48.102;11.620;2023-09-18T11:55:37;13.63;;;2.83;;
22388;SDS011;11362;48.102;11.620;2023-09-18T11:58:03;9.40;;;3.13;;
22388;SDS011;11362;48.102;11.620;2023-09-18T12:00:29;10.30;;;3.37;;
22388;SDS011;11362;48.102;11.620;2023-09-18T12:02:54;10.10;;;3.47;;
22388;SDS011;11362;48.102;11.620;2023-09-18T12:05:19;6.00;;;2.70;;
22388;SDS011;11362;48.102;11.620;2023-09-18T12:07:45;7.13;;;2.40;;
22388;SDS011;11362;48.102;11.620;2023-09-18T12:10:12;9.57;;;3.57;;
22388;SDS011;11362;48.102;11.620;2023-09-18T12:12:41;6.77;;;3.37;;
22388;SDS011;11362;48.102;11.620;2023-09-18T12:15:07;11.43;;;3.10;;
22388;SDS011;11362;48.102;11.620;2023-09-18T12:17:35;8.67;;;3.10;;
22388;SDS011;11362;48.102;11.620;2023-09-18T12:20:01;12.40;;;3.03;;
22388;SDS011;11362;48.102;11.620;2023-09-18T12:22:29;4.97;;;2.60;;
22388;SDS011;11362;48.102;11.620;2023-09-18T12:25:13;6.83;;;2.83;;
22388;SDS011;11362;48.102;11.620;2023-09-18T12:27:43;6.73;;;2.33;;
22388;SDS011;11362;48.102;11.620;2023-09-18T12:30:09;8.27;;;2.73;;
22388;SDS011;11362;48.102;11.620;2023-09-18T12:32:36;8.50;;;2.40;;
22388;SDS011;11362;48.102;11.620;2023-09-18T12:35:02;5.30;;;2.47;;
22388;SDS011;11362;48.102;11.620;2023-09-18T12:37:28;7.17;;;2.80;;
22388;SDS011;11362;48.102;11.620;2023-09-18T12:39:53;8.13;;;2.30;;
22388;SDS011;11362;48.102;11.620;2023-09-18T12:42:18;11.40;;;3.00;;
22388;SDS011;11362;48.102;11.620;2023-09-18T12:44:47;12.37;;;2.77;;
22388;SDS011;11362;48.102;11.620;2023-09-18T12:47:14;6.57;;;2.27;;
22388;SDS011;11362;48.102;11.620;2023-09-18T12:49:39;6.47;;;2.50;;
22388;SDS011;11362;48.102;11.620;2023-09-18T12:52:05;5.27;;;2.00;;
22388;SDS011;11362;48.102;11.620;2023-09-18T12:57:04;11.67;;;2.83;;
22388;SDS011;11362;48.102;11.620;2023-09-18T12:59:30;11.73;;;2.90;;
22388;SDS011;11362;48.102;11.620;2023-09-18T13:01:56;13.87;;;2.90;;
22388;SDS011;11362;48.102;11.620;2023-09-18T13:04:22;10.30;;;2.73;;
22388;SDS011;11362;48.102;11.620;2023-09-18T13:06:54;15.17;;;2.80;;
22388;SDS011;11362;48.102;11.620;2023-09-18T13:09:27;8.43;;;2.37;;
22388;SDS011;11362;48.102;11.620;2023-09-18T13:11:53;10.70;;;2.33;;
22388;SDS011;11362;48.102;11.620;2023-09-18T13:14:22;21.13;;;3.23;;
22388;SDS011;11362;48.102;11.620;2023-09-18T13:16:48;9.90;;;2.50;;
22388;SDS011;11362;48.102;11.620;2023-09-18T13:19:13;17.90;;;3.57;;
22388;SDS011;11362;48.102;11.620;2023-09-18T13:21:45;17.07;;;2.97;;
22388;SDS011;11362;48.102;11.620;2023-09-18T13:24:23;29.70;;;3.83;;
22388;SDS011;11362;48.102;11.620;2023-09-18T13:26:55;17.07;;;2.97;;
22388;SDS011;11362;48.102;11.620;2023-09-18T13:29:23;22.50;;;3.20;;
22388;SDS011;11362;48.102;11.620;2023-09-18T13:31:48;14.90;;;3.47;;
22388;SDS011;11362;48.102;11.620;2023-09-18T13:34:15;10.50;;;2.93;;
22388;SDS011;11362;48.102;11.620;2023-09-18T13:36:40;13.07;;;3.07;;
22388;SDS011;11362;48.102;11.620;2023-09-18T13:39:06;16.20;;;3.90;;
22388;SDS011;11362;48.102;11.620;2023-09-18T13:41:31;13.30;;;3.20;;
22388;SDS011;11362;48.102;11.620;2023-09-18T13:43:56;20.10;;;3.13;;
22388;SDS011;11362;48.102;11.620;2023-09-18T13:46:21;16.00;;;2.90;;
22388;SDS011;11362;48.102;11.620;2023-09-18T13:48:47;17.07;;;3.30;;
22388;SDS011;11362;48.102;11.620;2023-09-18T13:51:12;11.27;;;3.47;;
22388;SDS011;11362;48.102;11.620;2023-09-18T13:53:37;17.00;;;3.27;;
22388;SDS011;11362;48.102;11.620;2023-09-18T13:56:03;12.87;;;3.20;;
22388;SDS011;11362;48.102;11.620;2023-09-18T13:58:28;12.73;;;2.93;;
22388;SDS011;11362;48.102;11.620;2023-09-18T14:00:53;12.03;;;2.80;;
22388;SDS011;11362;48.102;11.620;2023-09-18T14:03:19;16.97;;;3.30;;
22388;SDS011;11362;48.102;11.620;2023-09-18T14:05:45;13.30;;;2.17;;
22388;SDS011;11362;48.102;11.620;2023-09-18T14:08:10;17.13;;;2.90;;
22388;SDS011;11362;48.102;11.620;2023-09-18T14:10:35;13.13;;;2.40;;
22388;SDS011;11362;48.102;11.620;2023-09-18T14:13:01;28.33;;;3.87;;
22388;SDS011;11362;48.102;11.620;2023-09-18T14:15:26;21.53;;;4.47;;
22388;SDS011;11362;48.102;11.620;2023-09-18T14:17:52;14.90;;;2.97;;
22388;SDS011;11362;48.102;11.620;2023-09-18T14:20:17;16.40;;;3.30;;
22388;SDS011;11362;48.102;11.620;2023-09-18T14:22:42;21.50;;;3.37;;
22388;SDS011;11362;48.102;11.620;2023-09-18T14:25:08;13.47;;;3.00;;
22388;SDS011;11362;48.102;11.620;2023-09-18T14:27:33;16.77;;;3.07;;
22388;SDS011;11362;48.102;11.620;2023-09-18T14:29:59;14.30;;;2.87;;
22388;SDS011;11362;48.102;11.620;2023-09-18T14:32:24;15.27;;;3.07;;
22388;SDS011;11362;48.102;11.620;2023-09-18T14:34:49;12.53;;;2.70;;
22388;SDS011;11362;48.102;11.620;2023-09-18T14:37:14;15.40;;;2.33;;
22388;SDS011;11362;48.102;11.620;2023-09-18T14:39:40;10.30;;;2.30;;
22388;SDS011;11362;48.102;11.620;2023-09-18T14:42:05;12.73;;;2.67;;